createdAt,value
2022-12-13T00:01:54.859Z,-1.59
2022-12-13T00:04:25.016Z,-1.60
2022-12-13T00:06:54.215Z,-1.65
2022-12-13T00:09:23.403Z,-1.72
2022-12-13T00:11:52.308Z,-1.75
2022-12-13T00:14:20.826Z,-1.77
2022-12-13T00:16:49.782Z,-1.77
2022-12-13T00:19:20.383Z,-1.81
2022-12-13T00:21:48.387Z,-1.83
2022-12-13T00:24:16.285Z,-1.83
2022-12-13T00:26:44.932Z,-1.83
2022-12-13T00:29:12.982Z,-1.88
2022-12-13T00:32:00.431Z,-1.90
2022-12-13T00:34:29.417Z,-1.91
2022-12-13T00:37:00.640Z,-1.94
2022-12-13T00:39:28.661Z,-1.96
2022-12-13T00:41:57.283Z,-1.95
2022-12-13T00:44:25.787Z,-1.94
2022-12-13T00:46:53.923Z,-1.94
2022-12-13T00:49:21.838Z,-1.95
2022-12-13T00:51:49.874Z,-1.95
2022-12-13T00:54:18.615Z,-1.98
2022-12-13T00:56:46.617Z,-2.02
2022-12-13T00:59:15.781Z,-2.05
2022-12-13T01:01:44.214Z,-2.03
2022-12-13T01:04:12.837Z,-2.03
2022-12-13T01:06:45.674Z,-2.02
2022-12-13T01:09:20.204Z,-2.02
2022-12-13T01:11:49.264Z,-2.01
2022-12-13T01:14:18.301Z,-2.02
2022-12-13T01:16:46.233Z,-2.01
2022-12-13T01:19:14.171Z,-1.99
2022-12-13T01:21:42.037Z,-1.95
2022-12-13T01:24:10.647Z,-1.95
2022-12-13T01:26:38.571Z,-1.93
2022-12-13T01:29:06.661Z,-1.92
2022-12-13T01:31:34.543Z,-1.87
2022-12-13T01:34:10.459Z,-1.83
2022-12-13T01:36:43.493Z,-1.81
2022-12-13T01:39:15.350Z,-1.77
2022-12-13T01:41:50.422Z,-1.74
2022-12-13T01:44:55.870Z,-1.71
2022-12-13T01:47:46.748Z,-1.71
2022-12-13T01:50:32.488Z,-1.72
2022-12-13T01:53:01.190Z,-1.81
2022-12-13T01:55:34.650Z,-1.91
2022-12-13T01:58:12.039Z,-1.98
2022-12-13T02:00:41.583Z,-2.01
2022-12-13T02:03:21.315Z,-2.03
2022-12-13T02:06:17.730Z,-2.02
2022-12-13T02:08:46.880Z,-2.03
2022-12-13T02:11:15.691Z,-2.06
2022-12-13T02:13:43.483Z,-2.06
2022-12-13T02:16:31.189Z,-2.07
2022-12-13T02:19:38.453Z,-2.07
2022-12-13T02:22:27.644Z,-2.04
2022-12-13T02:25:18.935Z,-2.03
2022-12-13T02:28:30.254Z,-2.02
2022-12-13T02:31:14.794Z,-2.02
2022-12-13T02:34:01.028Z,-2.05
2022-12-13T02:36:36.670Z,-2.04
2022-12-13T02:39:32.732Z,-2.02
2022-12-13T02:42:21.406Z,-1.99
2022-12-13T02:45:20.573Z,-1.96
2022-12-13T02:47:54.674Z,-1.93
2022-12-13T02:50:23.343Z,-1.91
2022-12-13T02:52:52.400Z,-1.89
2022-12-13T02:55:23.946Z,-1.86
2022-12-13T02:57:54.621Z,-1.82
2022-12-13T03:00:30.426Z,-1.77
2022-12-13T03:03:20.132Z,-1.73
2022-12-13T03:06:15.924Z,-1.72
2022-12-13T03:09:08.958Z,-1.72
2022-12-13T03:12:12.592Z,-1.71
2022-12-13T03:14:59.007Z,-1.75
2022-12-13T03:17:31.572Z,-1.76
2022-12-13T03:19:59.440Z,-1.73
2022-12-13T03:22:27.287Z,-1.71
2022-12-13T03:24:55.225Z,-1.69
2022-12-13T03:27:23.132Z,-1.66
2022-12-13T03:29:50.941Z,-1.63
2022-12-13T03:32:18.822Z,-1.61
2022-12-13T03:34:50.819Z,-1.60
2022-12-13T03:37:28.752Z,-1.57
2022-12-13T03:39:57.400Z,-1.54
2022-12-13T03:42:25.871Z,-1.52
2022-12-13T03:44:53.792Z,-1.50
2022-12-13T03:47:21.630Z,-1.51
2022-12-13T03:49:54.247Z,-1.51
2022-12-13T03:52:22.266Z,-1.50
2022-12-13T03:54:50.099Z,-1.47
2022-12-13T03:57:17.997Z,-1.46
2022-12-13T03:59:45.858Z,-1.45
2022-12-13T04:02:13.868Z,-1.43
2022-12-13T04:04:58.416Z,-1.41
2022-12-13T04:07:34.354Z,-1.39
2022-12-13T04:10:03.908Z,-1.38
2022-12-13T04:13:10.985Z,-1.38
2022-12-13T04:15:38.966Z,-1.37
2022-12-13T04:18:07.232Z,-1.36
2022-12-13T04:20:35.047Z,-1.39
2022-12-13T04:23:09.977Z,-1.38
2022-12-13T04:25:39.495Z,-1.37
2022-12-13T04:28:08.257Z,-1.37
2022-12-13T04:30:36.874Z,-1.36
2022-12-13T04:33:04.720Z,-1.37
2022-12-13T04:35:32.606Z,-1.35
2022-12-13T04:38:00.505Z,-1.32
2022-12-13T04:40:28.377Z,-1.30
2022-12-13T04:42:56.266Z,-1.29
2022-12-13T04:45:24.494Z,-1.28
2022-12-13T04:47:52.424Z,-1.27
2022-12-13T04:50:20.321Z,-1.24
2022-12-13T04:52:48.194Z,-1.22
2022-12-13T04:55:16.302Z,-1.24
2022-12-13T04:57:44.462Z,-1.23
2022-12-13T05:00:13.570Z,-1.23
2022-12-13T05:02:42.036Z,-1.23
2022-12-13T05:05:10.933Z,-1.25
2022-12-13T05:07:42.616Z,-1.27
2022-12-13T05:10:11.613Z,-1.28
2022-12-13T05:12:39.544Z,-1.28
2022-12-13T05:15:08.263Z,-1.24
2022-12-13T05:17:36.107Z,-1.23
2022-12-13T05:20:04.420Z,-1.23
2022-12-13T05:22:32.352Z,-1.21
2022-12-13T05:25:00.179Z,-1.20
2022-12-13T05:27:27.992Z,-1.18
2022-12-13T05:30:04.948Z,-1.18
2022-12-13T05:32:42.650Z,-1.18
2022-12-13T05:35:13.992Z,-1.18
2022-12-13T05:37:42.411Z,-1.17
2022-12-13T05:40:10.490Z,-1.17
2022-12-13T05:42:39.232Z,-1.18
2022-12-13T05:45:08.117Z,-1.23
2022-12-13T05:47:35.948Z,-1.27
2022-12-13T05:50:04.565Z,-1.29
2022-12-13T05:52:32.412Z,-1.32
2022-12-13T05:55:01.042Z,-1.35
2022-12-13T05:57:29.568Z,-1.37
2022-12-13T05:59:57.756Z,-1.38
2022-12-13T06:07:24.466Z,-1.31
2022-12-13T06:09:52.268Z,-1.33
2022-12-13T06:12:43.285Z,-1.31
2022-12-13T06:15:21.536Z,-1.30
2022-12-13T06:17:50.677Z,-1.32
2022-12-13T06:20:23.176Z,-1.35
2022-12-13T06:22:53.246Z,-1.36
2022-12-13T06:25:29.989Z,-1.38
2022-12-13T06:28:01.362Z,-1.39
2022-12-13T06:30:30.884Z,-1.39
2022-12-13T06:32:58.973Z,-1.39
2022-12-13T06:35:28.360Z,-1.39
2022-12-13T06:38:01.340Z,-1.39
2022-12-13T06:40:30.706Z,-1.37
2022-12-13T06:42:58.614Z,-1.36
2022-12-13T06:45:26.783Z,-1.39
2022-12-13T06:47:56.076Z,-1.40
2022-12-13T06:50:23.974Z,-1.41
2022-12-13T06:52:51.840Z,-1.40
2022-12-13T06:55:23.986Z,-1.38
2022-12-13T06:57:52.028Z,-1.35
2022-12-13T07:00:21.860Z,-1.34
2022-12-13T07:02:55.368Z,-1.33
2022-12-13T07:05:25.082Z,-1.30
2022-12-13T07:07:53.475Z,-1.27
2022-12-13T07:10:23.100Z,-1.25
2022-12-13T07:12:51.015Z,-1.23
2022-12-13T07:15:18.826Z,-1.22
2022-12-13T07:17:50.722Z,-1.21
2022-12-13T07:20:20.413Z,-1.19
2022-12-13T07:22:58.336Z,-1.18
2022-12-13T07:25:29.247Z,-1.17
2022-12-13T07:28:01.217Z,-1.15
2022-12-13T07:30:40.998Z,-1.10
2022-12-13T07:33:09.790Z,-1.07
2022-12-13T07:35:37.972Z,-1.04
2022-12-13T07:38:08.744Z,-1.05
2022-12-13T07:40:38.219Z,-1.07
2022-12-13T07:43:06.946Z,-1.08
2022-12-13T07:45:35.011Z,-1.08
2022-12-13T07:48:07.018Z,-1.06
2022-12-13T07:50:37.278Z,-1.04
2022-12-13T07:53:08.148Z,-1.02
2022-12-13T07:55:36.938Z,-1.00
2022-12-13T07:58:13.316Z,-0.97
2022-12-13T08:00:46.408Z,-0.97
2022-12-13T08:03:25.691Z,-0.95
2022-12-13T08:06:07.135Z,-0.92
2022-12-13T08:08:35.898Z,-0.90
2022-12-13T08:11:11.759Z,-0.87
2022-12-13T08:13:41.086Z,-0.80
2022-12-13T08:16:28.353Z,-0.40
2022-12-13T08:19:03.119Z,0.01
2022-12-13T08:21:55.014Z,0.73
2022-12-13T08:24:26.124Z,1.36
2022-12-13T08:27:01.439Z,1.76
2022-12-13T08:29:33.215Z,2.03
2022-12-13T08:32:09.660Z,2.31
2022-12-13T08:34:38.809Z,2.35
2022-12-13T08:37:07.007Z,1.95
2022-12-13T08:39:37.019Z,1.64
2022-12-13T08:42:15.447Z,1.41
2022-12-13T08:44:46.732Z,1.21
2022-12-13T08:47:24.256Z,1.06
2022-12-13T08:50:04.066Z,0.92
2022-12-13T08:52:39.197Z,0.84
2022-12-13T08:55:13.591Z,0.78
2022-12-13T08:57:43.301Z,0.79
2022-12-13T09:00:17.030Z,0.83
2022-12-13T09:02:45.349Z,0.87
2022-12-13T09:05:33.847Z,0.90
2022-12-13T09:08:22.913Z,0.83
2022-12-13T09:11:11.205Z,0.73
2022-12-13T09:13:50.424Z,0.74
2022-12-13T09:16:24.523Z,0.77
2022-12-13T09:18:55.155Z,0.81
2022-12-13T09:21:31.252Z,0.80
2022-12-13T09:24:01.804Z,0.80
2022-12-13T09:26:38.484Z,0.77
2022-12-13T09:29:10.807Z,0.72
2022-12-13T09:31:40.571Z,0.65
2022-12-13T09:34:10.642Z,0.59
2022-12-13T09:36:38.968Z,0.62
2022-12-13T09:39:06.869Z,0.65
2022-12-13T09:41:40.813Z,0.63
2022-12-13T09:44:31.959Z,0.65
2022-12-13T09:47:13.814Z,0.69
2022-12-13T09:49:52.041Z,0.70
2022-12-13T09:52:24.749Z,0.67
2022-12-13T09:54:56.908Z,0.67
2022-12-13T09:57:34.279Z,0.71
2022-12-13T10:00:07.155Z,0.72
2022-12-13T10:02:45.320Z,0.61
2022-12-13T10:05:22.634Z,0.54
2022-12-13T10:07:55.390Z,0.52
2022-12-13T10:10:23.975Z,0.49
2022-12-13T10:13:00.270Z,0.47
2022-12-13T10:15:30.694Z,0.40
2022-12-13T10:18:03.157Z,0.40
2022-12-13T10:20:32.897Z,0.45
2022-12-13T10:23:52.488Z,0.54
2022-12-13T10:25:54.758Z,0.61
2022-12-13T10:28:33.438Z,0.65
2022-12-13T10:31:02.206Z,0.68
2022-12-13T10:33:31.671Z,0.70
2022-12-13T10:36:08.913Z,0.77
2022-12-13T10:38:46.587Z,0.77
2022-12-13T10:41:31.490Z,0.71
2022-12-13T10:44:22.884Z,0.69
2022-12-13T10:47:10.902Z,0.79
2022-12-13T10:49:59.065Z,0.96
2022-12-13T10:52:32.187Z,1.17
2022-12-13T10:55:23.246Z,1.34
2022-12-13T10:57:54.132Z,1.48
2022-12-13T11:00:37.886Z,1.57
2022-12-13T11:03:07.518Z,1.63
2022-12-13T11:05:38.130Z,1.69
2022-12-13T11:08:16.420Z,1.77
2022-12-13T11:10:44.646Z,1.76
2022-12-13T11:13:36.809Z,1.75
2022-12-13T11:16:35.476Z,1.81
2022-12-13T11:19:15.786Z,1.94
2022-12-13T11:21:48.580Z,1.99
2022-12-13T11:24:24.368Z,1.96
2022-12-13T11:26:58.831Z,1.97
2022-12-13T11:30:12.536Z,1.95
2022-12-13T11:33:01.747Z,1.86
2022-12-13T11:35:49.436Z,1.81
2022-12-13T11:38:59.313Z,1.73
2022-12-13T11:41:36.441Z,1.55
2022-12-13T11:44:13.648Z,1.46
2022-12-13T11:46:45.069Z,1.37
2022-12-13T11:49:20.687Z,1.29
2022-12-13T11:52:01.353Z,1.25
2022-12-13T11:54:38.144Z,1.23
2022-12-13T11:57:19.765Z,1.26
2022-12-13T11:59:53.594Z,1.29
2022-12-13T12:02:34.094Z,1.32
2022-12-13T12:05:28.447Z,1.35
2022-12-13T12:08:31.880Z,1.45
2022-12-13T12:11:19.246Z,1.45
2022-12-13T12:13:58.857Z,1.46
2022-12-13T12:16:49.609Z,1.42
2022-12-13T12:19:21.686Z,1.35
2022-12-13T12:22:15.556Z,1.32
2022-12-13T12:25:05.665Z,1.30
2022-12-13T12:27:48.396Z,1.31
2022-12-13T12:30:23.087Z,1.32
2022-12-13T12:32:54.948Z,1.33
2022-12-13T12:35:52.690Z,1.33
2022-12-13T12:38:23.922Z,1.32
2022-12-13T12:41:16.768Z,1.32
2022-12-13T12:43:54.601Z,1.31
2022-12-13T12:46:42.348Z,1.30
2022-12-13T12:50:03.021Z,1.25
2022-12-13T12:53:13.459Z,1.17
2022-12-13T12:56:10.909Z,1.10
2022-12-13T12:59:00.502Z,1.00
2022-12-13T13:02:03.777Z,0.90
2022-12-13T13:04:42.667Z,0.80
2022-12-13T13:07:28.796Z,0.72
2022-12-13T13:09:57.562Z,0.69
2022-12-13T13:12:30.472Z,0.66
2022-12-13T13:14:58.792Z,0.64
2022-12-13T13:17:26.557Z,0.60
2022-12-13T13:20:12.328Z,0.55
2022-12-13T13:22:43.305Z,0.48
2022-12-13T13:25:22.898Z,0.41
2022-12-13T13:27:51.308Z,0.35
2022-12-13T13:30:25.171Z,0.27
2022-12-13T13:32:55.666Z,0.22
2022-12-13T13:35:33.225Z,0.19
2022-12-13T13:38:16.849Z,0.17
2022-12-13T13:40:44.786Z,0.14
2022-12-13T13:43:12.830Z,0.09
2022-12-13T13:45:50.001Z,0.00
2022-12-13T13:48:46.050Z,-0.09
2022-12-13T13:51:29.319Z,-0.22
2022-12-13T13:54:22.475Z,-0.34
2022-12-13T13:57:38.489Z,-0.44
2022-12-13T14:00:17.933Z,-0.54
2022-12-13T14:03:29.162Z,-0.57
2022-12-13T14:06:26.506Z,-0.64
2022-12-13T14:09:25.374Z,-0.70
2022-12-13T14:12:23.885Z,-0.75
2022-12-13T14:14:51.782Z,-0.81
2022-12-13T14:18:00.816Z,-0.87
2022-12-13T14:20:45.280Z,-0.94
2022-12-13T14:23:48.389Z,-1.02
2022-12-13T14:26:37.903Z,-1.10
2022-12-13T14:29:16.186Z,-1.17
2022-12-13T14:31:47.406Z,-1.22
2022-12-13T14:34:30.064Z,-1.28
2022-12-13T14:37:06.772Z,-1.36
2022-12-13T14:39:34.760Z,-1.44
2022-12-13T14:42:22.067Z,-1.53
2022-12-13T14:44:50.629Z,-1.61
2022-12-13T14:47:20.284Z,-1.70
2022-12-13T14:49:53.830Z,-1.80
2022-12-13T14:52:27.702Z,-1.89
2022-12-13T14:54:58.859Z,-1.98
2022-12-13T14:57:29.989Z,-2.07
2022-12-13T14:59:59.938Z,-2.15
2022-12-13T15:02:31.841Z,-2.23
2022-12-13T15:05:03.882Z,-2.32
2022-12-13T15:07:40.401Z,-2.40
2022-12-13T15:10:31.810Z,-2.47
2022-12-13T15:13:00.169Z,-2.55
2022-12-13T15:15:32.904Z,-2.61
2022-12-13T15:18:10.090Z,-2.67
2022-12-13T15:20:41.898Z,-2.72
2022-12-13T15:23:21.881Z,-2.77
2022-12-13T15:26:28.425Z,-2.85
2022-12-13T15:29:10.169Z,-2.91
2022-12-13T15:31:40.580Z,-2.96
2022-12-13T15:34:28.862Z,-3.02
2022-12-13T15:37:30.435Z,-3.07
2022-12-13T15:40:08.207Z,-3.11
2022-12-13T15:42:39.146Z,-3.17
2022-12-13T15:45:19.776Z,-3.24
2022-12-13T15:47:49.163Z,-3.31
2022-12-13T15:50:36.459Z,-3.36
2022-12-13T15:53:21.651Z,-3.40
2022-12-13T15:55:49.650Z,-3.45
2022-12-13T15:58:35.146Z,-3.51
2022-12-13T16:01:05.631Z,-3.56
2022-12-13T16:03:45.378Z,-3.60
2022-12-13T16:06:22.351Z,-3.62
2022-12-13T16:08:54.296Z,-3.64
2022-12-13T16:11:34.232Z,-3.69
2022-12-13T16:14:30.636Z,-3.73
2022-12-13T16:17:09.010Z,-3.79
2022-12-13T16:19:37.031Z,-3.85
2022-12-13T16:22:08.543Z,-3.89
2022-12-13T16:24:37.582Z,-3.90
2022-12-13T16:27:08.825Z,-3.92
2022-12-13T16:29:36.970Z,-3.98
2022-12-13T16:32:08.843Z,-4.02
2022-12-13T16:34:37.915Z,-4.03
2022-12-13T16:37:09.039Z,-4.05
2022-12-13T16:39:54.521Z,-4.08
2022-12-13T16:42:26.097Z,-4.10
2022-12-13T16:45:17.846Z,-4.13
2022-12-13T16:47:49.089Z,-4.14
2022-12-13T16:50:19.979Z,-4.17
2022-12-13T16:52:49.000Z,-4.22
2022-12-13T16:55:17.460Z,-4.26
2022-12-13T16:58:02.265Z,-4.31
2022-12-13T17:00:30.447Z,-4.34
2022-12-13T17:03:00.029Z,-4.39
2022-12-13T17:05:29.517Z,-4.43
2022-12-13T17:07:57.548Z,-4.49
2022-12-13T17:10:26.323Z,-4.55
2022-12-13T17:12:54.219Z,-4.57
2022-12-13T17:15:22.132Z,-4.57
2022-12-13T17:17:50.074Z,-4.57
2022-12-13T17:20:18.478Z,-4.59
2022-12-13T17:22:46.966Z,-4.61
2022-12-13T17:25:15.196Z,-4.63
2022-12-13T17:27:43.108Z,-4.66
2022-12-13T17:30:20.453Z,-4.68
2022-12-13T17:32:48.305Z,-4.69
2022-12-13T17:35:18.500Z,-4.71
2022-12-13T17:37:46.670Z,-4.72
2022-12-13T17:40:16.862Z,-4.77
2022-12-13T17:42:45.825Z,-4.79
2022-12-13T17:45:13.968Z,-4.80
2022-12-13T17:47:42.887Z,-4.81
2022-12-13T17:50:10.743Z,-4.82
2022-12-13T17:52:39.210Z,-4.85
2022-12-13T17:55:11.228Z,-4.88
2022-12-13T18:08:39.040Z,-4.95
2022-12-13T18:13:56.560Z,-5.00
2022-12-13T18:16:34.149Z,-5.02
2022-12-13T18:19:07.158Z,-5.01
2022-12-13T18:21:37.056Z,-5.01
2022-12-13T18:24:09.586Z,-5.01
2022-12-13T18:26:37.611Z,-5.01
2022-12-13T18:29:05.622Z,-5.01
2022-12-13T18:31:33.753Z,-5.02
2022-12-13T18:34:01.726Z,-5.04
2022-12-13T18:36:30.270Z,-5.05
2022-12-13T18:38:58.652Z,-5.07
2022-12-13T18:41:29.172Z,-5.08
2022-12-13T18:44:02.719Z,-5.11
2022-12-13T18:46:37.645Z,-5.13
2022-12-13T18:49:06.732Z,-5.15
2022-12-13T18:51:34.910Z,-5.18
2022-12-13T18:54:03.034Z,-5.21
2022-12-13T18:56:31.047Z,-5.24
2022-12-13T18:58:59.749Z,-5.27
2022-12-13T19:01:28.763Z,-5.27
2022-12-13T19:03:57.479Z,-5.28
2022-12-13T19:06:27.581Z,-5.30
2022-12-13T19:08:57.936Z,-5.33
2022-12-13T19:11:27.738Z,-5.35
2022-12-13T19:13:58.235Z,-5.41
2022-12-13T19:16:26.812Z,-5.44
2022-12-13T19:18:55.041Z,-5.49
2022-12-13T19:21:23.275Z,-5.57
2022-12-13T19:23:56.954Z,-5.64
2022-12-13T19:26:31.618Z,-5.71
2022-12-13T19:28:59.728Z,-5.79
2022-12-13T19:31:32.130Z,-5.87
2022-12-13T19:34:02.571Z,-5.94
2022-12-13T19:36:32.330Z,-5.99
2022-12-13T19:39:01.005Z,-6.03
2022-12-13T19:41:32.100Z,-6.07
2022-12-13T19:44:04.494Z,-6.12
2022-12-13T19:46:33.350Z,-6.14
2022-12-13T19:49:01.473Z,-6.17
2022-12-13T19:51:33.134Z,-6.19
2022-12-13T19:54:04.384Z,-6.20
2022-12-13T19:56:32.482Z,-6.21
2022-12-13T19:59:01.293Z,-6.21
2022-12-13T20:01:29.379Z,-6.21
2022-12-13T20:03:59.711Z,-6.21
2022-12-13T20:06:27.697Z,-6.19
2022-12-13T20:08:55.742Z,-6.19
2022-12-13T20:11:24.181Z,-6.18
2022-12-13T20:13:55.265Z,-6.17
2022-12-13T20:16:25.874Z,-6.17
2022-12-13T20:18:57.742Z,-6.15
2022-12-13T20:21:27.797Z,-6.13
2022-12-13T20:23:56.646Z,-6.12
2022-12-13T20:26:26.872Z,-6.12
2022-12-13T20:28:55.777Z,-6.10
2022-12-13T20:31:27.403Z,-6.10
2022-12-13T20:33:56.911Z,-6.09
2022-12-13T20:36:27.740Z,-6.09
2022-12-13T20:38:57.647Z,-6.10
2022-12-13T20:41:28.123Z,-6.11
2022-12-13T20:43:59.224Z,-6.11
2022-12-13T20:46:29.134Z,-6.13
2022-12-13T20:49:00.141Z,-6.16
2022-12-13T20:51:29.750Z,-6.19
2022-12-13T20:53:58.596Z,-6.24
2022-12-13T20:56:29.507Z,-6.28
2022-12-13T20:58:58.067Z,-6.33
2022-12-13T21:01:28.470Z,-6.39
2022-12-13T21:04:00.246Z,-6.43
2022-12-13T21:06:29.946Z,-6.49
2022-12-13T21:09:05.305Z,-6.52
2022-12-13T21:11:38.960Z,-6.56
2022-12-13T21:14:16.680Z,-6.58
2022-12-13T21:17:09.903Z,-6.60
2022-12-13T21:19:40.327Z,-6.60
2022-12-13T21:22:08.677Z,-6.58
2022-12-13T21:24:36.733Z,-6.57
2022-12-13T21:27:06.581Z,-6.56
2022-12-13T21:29:34.494Z,-6.56
2022-12-13T21:32:02.527Z,-6.55
2022-12-13T21:34:30.525Z,-6.55
2022-12-13T21:36:58.414Z,-6.58
2022-12-13T21:39:29.777Z,-6.59
2022-12-13T21:41:58.270Z,-6.62
2022-12-13T21:44:26.303Z,-6.63
2022-12-13T21:47:11.733Z,-6.69
2022-12-13T21:49:41.132Z,-6.73
2022-12-13T21:52:09.185Z,-6.74
2022-12-13T21:54:37.102Z,-6.76
2022-12-13T21:57:23.387Z,-6.76
2022-12-13T21:59:51.481Z,-6.76
2022-12-13T22:02:19.809Z,-6.75
2022-12-13T22:04:49.574Z,-6.76
2022-12-13T22:07:23.624Z,-6.78
2022-12-13T22:09:53.228Z,-6.79
2022-12-13T22:12:33.315Z,-6.80
2022-12-13T22:15:01.769Z,-6.83
2022-12-13T22:17:35.124Z,-6.86
2022-12-13T22:20:06.890Z,-6.85
2022-12-13T22:22:34.893Z,-6.87
2022-12-13T22:25:03.050Z,-6.87
2022-12-13T22:27:31.088Z,-6.89
2022-12-13T22:29:59.758Z,-6.91
2022-12-13T22:32:31.462Z,-6.94
2022-12-13T22:34:59.427Z,-6.98
2022-12-13T22:37:27.371Z,-7.02
2022-12-13T22:39:55.351Z,-7.05
2022-12-13T22:42:23.237Z,-7.09
2022-12-13T22:44:51.141Z,-7.13
2022-12-13T22:47:19.521Z,-7.18
2022-12-13T22:49:48.681Z,-7.23
2022-12-13T22:52:17.657Z,-7.27
2022-12-13T22:54:45.879Z,-7.29
2022-12-13T22:57:14.073Z,-7.34
2022-12-13T22:59:42.036Z,-7.38
2022-12-13T23:02:10.225Z,-7.41
2022-12-13T23:04:39.401Z,-7.44
2022-12-13T23:07:07.640Z,-7.46
2022-12-13T23:09:35.726Z,-7.50
2022-12-13T23:12:22.156Z,-7.54
2022-12-13T23:14:51.439Z,-7.58
2022-12-13T23:17:19.445Z,-7.62
2022-12-13T23:19:51.500Z,-7.65
2022-12-13T23:22:23.515Z,-7.67
2022-12-13T23:24:52.774Z,-7.69
2022-12-13T23:27:22.885Z,-7.72
2022-12-13T23:29:50.882Z,-7.73
2022-12-13T23:32:19.292Z,-7.80
2022-12-13T23:34:47.368Z,-7.89
2022-12-13T23:37:15.514Z,-7.95
2022-12-13T23:39:43.454Z,-8.03
2022-12-13T23:42:11.589Z,-8.07
2022-12-13T23:44:39.536Z,-8.08
2022-12-13T23:47:07.522Z,-8.11
2022-12-13T23:49:35.444Z,-8.14
2022-12-13T23:52:03.422Z,-8.17
2022-12-13T23:54:31.264Z,-8.20
2022-12-13T23:56:59.125Z,-8.25
2022-12-13T23:59:27.928Z,-8.29
